createdAt,value
2018-08-16T00:00:15.735Z,19.30
2018-08-16T00:01:16.205Z,19.21
2018-08-16T00:02:16.679Z,19.12
2018-08-16T00:03:17.157Z,19.02
2018-08-16T00:04:17.682Z,18.93
2018-08-16T00:05:18.102Z,18.83
2018-08-16T00:06:18.579Z,18.73
2018-08-16T00:07:19.054Z,18.63
2018-08-16T00:08:19.528Z,18.54
2018-08-16T00:09:20.002Z,18.43
2018-08-16T00:10:20.478Z,18.34
2018-08-16T00:11:20.951Z,18.26
2018-08-16T00:12:21.459Z,18.17
2018-08-16T00:13:21.897Z,18.08
2018-08-16T00:14:22.422Z,17.99
2018-08-16T00:15:22.845Z,17.90
2018-08-16T00:16:23.317Z,17.82
2018-08-16T00:17:23.793Z,17.73
2018-08-16T00:18:24.266Z,17.65
2018-08-16T00:19:24.743Z,17.56
2018-08-16T00:20:25.212Z,17.48
2018-08-16T00:21:25.684Z,17.41
2018-08-16T00:22:26.156Z,17.34
2018-08-16T00:23:26.630Z,17.27
2018-08-16T00:24:27.154Z,17.20
2018-08-16T00:25:27.581Z,17.12
2018-08-16T00:26:28.048Z,17.06
2018-08-16T00:27:28.520Z,16.99
2018-08-16T00:28:28.992Z,16.92
2018-08-16T00:29:29.516Z,16.86
2018-08-16T00:30:29.935Z,16.80
2018-08-16T00:31:30.408Z,16.74
2018-08-16T00:32:30.879Z,16.69
2018-08-16T00:33:31.351Z,16.64
2018-08-16T00:34:31.824Z,16.59
2018-08-16T00:35:32.295Z,16.53
2018-08-16T00:36:32.768Z,16.48
2018-08-16T00:37:33.235Z,16.43
2018-08-16T00:38:33.707Z,16.38
2018-08-16T00:39:34.180Z,16.35
2018-08-16T00:40:34.651Z,16.30
2018-08-16T00:41:35.123Z,16.26
2018-08-16T00:42:35.592Z,16.23
2018-08-16T00:43:36.062Z,16.20
2018-08-16T00:44:36.586Z,16.20
2018-08-16T00:45:37.005Z,16.21
2018-08-16T00:46:37.475Z,16.25
2018-08-16T00:47:37.944Z,16.30
2018-08-16T00:48:38.417Z,16.37
2018-08-16T00:49:38.894Z,16.46
2018-08-16T00:50:39.357Z,16.56
2018-08-16T00:51:39.829Z,16.66
2018-08-16T00:52:40.307Z,16.78
2018-08-16T00:53:40.769Z,16.89
2018-08-16T00:54:41.242Z,17.02
2018-08-16T00:55:41.714Z,17.16
2018-08-16T00:56:42.184Z,17.31
2018-08-16T00:57:42.654Z,17.46
2018-08-16T00:58:43.127Z,17.62
2018-08-16T00:59:43.598Z,17.76
2018-08-16T01:00:44.071Z,17.92
2018-08-16T01:01:44.542Z,18.07
2018-08-16T01:02:45.019Z,18.22
2018-08-16T01:03:45.491Z,18.36
2018-08-16T01:04:46.012Z,18.48
2018-08-16T01:05:46.437Z,18.62
2018-08-16T01:06:46.906Z,18.73
2018-08-16T01:07:47.378Z,18.87
2018-08-16T01:08:47.853Z,18.98
2018-08-16T01:09:48.324Z,19.06
2018-08-16T01:10:48.806Z,19.13
2018-08-16T01:11:49.273Z,19.16
2018-08-16T01:12:49.752Z,19.20
2018-08-16T01:13:50.221Z,19.21
2018-08-16T01:14:50.694Z,19.20
2018-08-16T01:15:51.171Z,19.17
2018-08-16T01:16:51.645Z,19.12
2018-08-16T01:17:52.118Z,19.06
2018-08-16T01:18:52.592Z,18.99
2018-08-16T01:19:53.071Z,18.91
2018-08-16T01:20:53.543Z,18.82
2018-08-16T01:21:54.017Z,18.72
2018-08-16T01:22:54.495Z,18.63
2018-08-16T01:23:54.968Z,18.54
2018-08-16T01:24:55.444Z,18.44
2018-08-16T01:25:55.916Z,18.33
2018-08-16T01:26:56.392Z,18.22
2018-08-16T01:27:56.865Z,18.11
2018-08-16T01:28:57.339Z,17.99
2018-08-16T01:29:57.812Z,17.88
2018-08-16T01:30:58.289Z,17.76
2018-08-16T01:31:58.761Z,17.65
2018-08-16T01:32:59.239Z,17.55
2018-08-16T01:33:59.708Z,17.45
2018-08-16T01:35:00.184Z,17.35
2018-08-16T01:36:00.657Z,17.26
2018-08-16T01:37:01.130Z,17.15
2018-08-16T01:38:01.604Z,17.06
2018-08-16T01:39:02.076Z,16.97
2018-08-16T01:40:02.550Z,16.88
2018-08-16T01:41:03.027Z,16.79
2018-08-16T01:42:03.494Z,16.71
2018-08-16T01:43:03.969Z,16.61
2018-08-16T01:44:04.440Z,16.53
2018-08-16T01:45:04.915Z,16.45
2018-08-16T01:46:05.383Z,16.38
2018-08-16T01:47:05.857Z,16.30
2018-08-16T01:48:06.328Z,16.23
2018-08-16T01:49:06.803Z,16.15
2018-08-16T01:50:07.273Z,16.08
2018-08-16T01:51:07.744Z,16.02
2018-08-16T01:52:08.217Z,15.95
2018-08-16T01:53:08.686Z,15.88
2018-08-16T01:54:09.159Z,15.82
2018-08-16T01:55:09.629Z,15.77
2018-08-16T01:56:10.101Z,15.72
2018-08-16T01:57:10.571Z,15.67
2018-08-16T01:58:11.040Z,15.65
2018-08-16T01:59:11.514Z,15.63
2018-08-16T02:00:11.984Z,15.64
2018-08-16T02:01:12.455Z,15.67
2018-08-16T02:02:12.926Z,15.72
2018-08-16T02:03:13.401Z,15.79
2018-08-16T02:04:13.867Z,15.87
2018-08-16T02:05:14.351Z,15.96
2018-08-16T02:06:14.807Z,16.05
2018-08-16T02:07:15.278Z,16.15
2018-08-16T02:08:15.749Z,16.25
2018-08-16T02:09:16.226Z,16.38
2018-08-16T02:10:16.689Z,16.53
2018-08-16T02:11:17.161Z,16.67
2018-08-16T02:12:17.634Z,16.81
2018-08-16T02:13:18.105Z,16.98
2018-08-16T02:14:18.581Z,17.13
2018-08-16T02:15:19.048Z,17.28
2018-08-16T02:16:19.519Z,17.42
2018-08-16T02:17:19.990Z,17.57
2018-08-16T02:18:20.464Z,17.69
2018-08-16T02:19:20.934Z,17.82
2018-08-16T02:20:21.410Z,17.95
2018-08-16T02:21:21.880Z,18.08
2018-08-16T02:22:22.353Z,18.20
2018-08-16T02:23:22.826Z,18.32
2018-08-16T02:24:23.299Z,18.43
2018-08-16T02:25:23.771Z,18.53
2018-08-16T02:26:24.248Z,18.62
2018-08-16T02:27:24.719Z,18.67
2018-08-16T02:28:25.193Z,18.70
2018-08-16T02:29:25.668Z,18.72
2018-08-16T02:30:26.190Z,18.73
2018-08-16T02:31:26.616Z,18.72
2018-08-16T02:32:27.090Z,18.69
2018-08-16T02:33:27.578Z,18.64
2018-08-16T02:34:28.040Z,18.58
2018-08-16T02:35:28.514Z,18.50
2018-08-16T02:36:28.990Z,18.42
2018-08-16T02:37:29.464Z,18.34
2018-08-16T02:38:29.936Z,18.25
2018-08-16T02:39:30.412Z,18.14
2018-08-16T02:40:30.886Z,18.05
2018-08-16T02:41:31.362Z,17.93
2018-08-16T02:42:31.834Z,17.82
2018-08-16T02:43:32.309Z,17.72
2018-08-16T02:44:32.783Z,17.61
2018-08-16T02:45:33.259Z,17.49
2018-08-16T02:46:33.731Z,17.37
2018-08-16T02:47:34.204Z,17.26
2018-08-16T02:48:34.680Z,17.14
2018-08-16T02:49:35.152Z,17.03
2018-08-16T02:50:35.624Z,16.92
2018-08-16T02:51:36.098Z,16.81
2018-08-16T02:52:36.576Z,16.71
2018-08-16T02:53:37.046Z,16.60
2018-08-16T02:54:37.516Z,16.50
2018-08-16T02:55:37.990Z,16.39
2018-08-16T02:56:38.462Z,16.29
2018-08-16T02:57:38.937Z,16.19
2018-08-16T02:58:39.407Z,16.10
2018-08-16T02:59:39.883Z,16.00
2018-08-16T03:00:40.353Z,15.91
2018-08-16T03:01:40.826Z,15.82
2018-08-16T03:02:41.294Z,15.73
2018-08-16T03:03:41.766Z,15.65
2018-08-16T03:04:42.239Z,15.57
2018-08-16T03:05:42.713Z,15.50
2018-08-16T03:06:43.181Z,15.42
2018-08-16T03:07:43.656Z,15.35
2018-08-16T03:08:44.132Z,15.29
2018-08-16T03:09:44.594Z,15.24
2018-08-16T03:10:45.066Z,15.21
2018-08-16T03:11:45.538Z,15.20
2018-08-16T03:12:46.010Z,15.22
2018-08-16T03:13:46.481Z,15.26
2018-08-16T03:14:46.951Z,15.32
2018-08-16T03:15:47.419Z,15.40
2018-08-16T03:16:47.889Z,15.48
2018-08-16T03:17:48.360Z,15.56
2018-08-16T03:18:48.831Z,15.63
2018-08-16T03:19:49.301Z,15.74
2018-08-16T03:20:49.773Z,15.86
2018-08-16T03:21:50.245Z,16.01
2018-08-16T03:22:50.714Z,16.13
2018-08-16T03:23:51.185Z,16.28
2018-08-16T03:24:51.657Z,16.42
2018-08-16T03:25:52.127Z,16.58
2018-08-16T03:26:52.599Z,16.74
2018-08-16T03:27:53.072Z,16.88
2018-08-16T03:28:53.541Z,17.03
2018-08-16T03:29:54.016Z,17.14
2018-08-16T03:30:54.489Z,17.30
2018-08-16T03:31:54.958Z,17.41
2018-08-16T03:32:55.433Z,17.55
2018-08-16T03:33:55.902Z,17.65
2018-08-16T03:34:56.374Z,17.77
2018-08-16T03:35:56.848Z,17.89
2018-08-16T03:36:57.323Z,18.00
2018-08-16T03:37:57.794Z,18.09
2018-08-16T03:38:58.267Z,18.18
2018-08-16T03:39:58.740Z,18.26
2018-08-16T03:40:59.216Z,18.33
2018-08-16T03:41:59.689Z,18.35
2018-08-16T03:43:00.162Z,18.35
2018-08-16T03:44:00.637Z,18.35
2018-08-16T03:45:01.110Z,18.34
2018-08-16T03:46:01.587Z,18.30
2018-08-16T03:47:02.059Z,18.24
2018-08-16T03:48:02.541Z,18.19
2018-08-16T03:49:03.013Z,18.10
2018-08-16T03:50:03.484Z,18.00
2018-08-16T03:51:03.957Z,17.90
2018-08-16T03:52:04.432Z,17.80
2018-08-16T03:53:04.909Z,17.70
2018-08-16T03:54:05.382Z,17.59
2018-08-16T03:55:05.856Z,17.48
2018-08-16T03:56:06.331Z,17.37
2018-08-16T03:57:06.804Z,17.25
2018-08-16T03:58:07.280Z,17.13
2018-08-16T03:59:07.749Z,17.01
2018-08-16T04:00:08.227Z,16.88
2018-08-16T04:01:08.698Z,16.75
2018-08-16T04:02:09.172Z,16.63
2018-08-16T04:03:09.647Z,16.51
2018-08-16T04:04:10.118Z,16.39
2018-08-16T04:05:10.592Z,16.29
2018-08-16T04:06:11.067Z,16.18
2018-08-16T04:07:11.536Z,16.07
2018-08-16T04:08:12.012Z,15.97
2018-08-16T04:09:12.482Z,15.87
2018-08-16T04:10:12.955Z,15.77
2018-08-16T04:11:13.427Z,15.68
2018-08-16T04:12:13.899Z,15.58
2018-08-16T04:13:14.372Z,15.48
2018-08-16T04:14:14.842Z,15.39
2018-08-16T04:15:15.316Z,15.29
2018-08-16T04:16:15.786Z,15.20
2018-08-16T04:17:16.258Z,15.12
2018-08-16T04:18:16.730Z,15.05
2018-08-16T04:19:17.198Z,14.98
2018-08-16T04:20:17.673Z,14.92
2018-08-16T04:21:18.141Z,14.88
2018-08-16T04:22:18.612Z,14.88
2018-08-16T04:23:19.083Z,14.90
2018-08-16T04:24:19.554Z,14.93
2018-08-16T04:25:20.024Z,14.99
2018-08-16T04:26:20.496Z,15.05
2018-08-16T04:27:20.965Z,15.13
2018-08-16T04:28:21.434Z,15.20
2018-08-16T04:29:21.906Z,15.29
2018-08-16T04:30:22.378Z,15.39
2018-08-16T04:31:23.049Z,15.51
2018-08-16T04:32:23.319Z,15.64
2018-08-16T04:33:23.790Z,15.80
2018-08-16T04:34:24.260Z,15.94
2018-08-16T04:35:24.739Z,16.09
2018-08-16T04:36:25.202Z,16.25
2018-08-16T04:37:25.673Z,16.40
2018-08-16T04:38:26.144Z,16.54
2018-08-16T04:39:26.616Z,16.69
2018-08-16T04:40:27.088Z,16.81
2018-08-16T04:41:27.625Z,16.95
2018-08-16T04:42:28.031Z,17.08
2018-08-16T04:43:28.503Z,17.22
2018-08-16T04:44:28.976Z,17.33
2018-08-16T04:45:29.449Z,17.44
2018-08-16T04:46:29.923Z,17.56
2018-08-16T04:47:30.394Z,17.68
2018-08-16T04:48:30.891Z,17.78
2018-08-16T04:49:31.340Z,17.88
2018-08-16T04:50:31.813Z,17.99
2018-08-16T04:51:32.285Z,18.06
2018-08-16T04:52:32.760Z,18.14
2018-08-16T04:53:33.233Z,18.19
2018-08-16T04:54:33.709Z,18.22
2018-08-16T04:55:34.184Z,18.23
2018-08-16T04:56:34.657Z,18.24
2018-08-16T04:57:35.131Z,18.23
2018-08-16T04:58:35.606Z,18.18
2018-08-16T04:59:36.078Z,18.13
2018-08-16T05:00:36.554Z,18.08
2018-08-16T05:01:37.029Z,18.01
2018-08-16T05:02:37.506Z,17.94
2018-08-16T05:03:37.979Z,17.86
2018-08-16T05:04:38.451Z,17.77
2018-08-16T05:05:38.925Z,17.68
2018-08-16T05:06:39.404Z,17.58
2018-08-16T05:07:39.873Z,17.49
2018-08-16T05:08:40.348Z,17.40
2018-08-16T05:09:40.824Z,17.30
2018-08-16T05:10:41.297Z,17.20
2018-08-16T05:11:41.771Z,17.10
2018-08-16T05:12:42.243Z,16.99
2018-08-16T05:13:42.718Z,16.89
2018-08-16T05:14:43.192Z,16.79
2018-08-16T05:15:43.666Z,16.70
2018-08-16T05:16:44.140Z,16.61
2018-08-16T05:17:44.611Z,16.53
2018-08-16T05:18:45.092Z,16.44
2018-08-16T05:19:45.559Z,16.36
2018-08-16T05:20:46.031Z,16.28
2018-08-16T05:21:46.508Z,16.20
2018-08-16T05:22:46.977Z,16.12
2018-08-16T05:23:47.513Z,16.05
2018-08-16T05:24:47.923Z,15.97
2018-08-16T05:25:48.392Z,15.90
2018-08-16T05:26:48.863Z,15.83
2018-08-16T05:27:49.333Z,15.77
2018-08-16T05:28:49.806Z,15.70
2018-08-16T05:29:50.278Z,15.64
2018-08-16T05:30:50.750Z,15.58
2018-08-16T05:31:51.218Z,15.53
2018-08-16T05:32:51.692Z,15.50
2018-08-16T05:33:52.163Z,15.48
2018-08-16T05:34:52.634Z,15.48
2018-08-16T05:35:53.102Z,15.50
2018-08-16T05:36:53.574Z,15.54
2018-08-16T05:37:54.046Z,15.60
2018-08-16T05:38:54.522Z,15.68
2018-08-16T05:39:54.985Z,15.77
2018-08-16T05:40:55.459Z,15.86
2018-08-16T05:41:55.930Z,15.97
2018-08-16T05:42:56.418Z,16.08
2018-08-16T05:43:56.871Z,16.23
2018-08-16T05:44:57.339Z,16.38
2018-08-16T05:45:57.812Z,16.53
2018-08-16T05:46:58.283Z,16.67
2018-08-16T05:47:58.754Z,16.84
2018-08-16T05:48:59.227Z,17.01
2018-08-16T05:49:59.698Z,17.16
2018-08-16T05:51:00.169Z,17.32
2018-08-16T05:52:00.640Z,17.47
2018-08-16T05:53:01.111Z,17.62
2018-08-16T05:54:01.585Z,17.77
2018-08-16T05:55:02.061Z,17.92
2018-08-16T05:56:02.529Z,18.04
2018-08-16T05:57:03.052Z,18.18
2018-08-16T05:58:03.474Z,18.31
2018-08-16T05:59:03.948Z,18.43
2018-08-16T06:00:04.422Z,18.57
2018-08-16T06:01:04.894Z,18.70
2018-08-16T06:02:05.369Z,18.83
2018-08-16T06:03:05.846Z,18.92
2018-08-16T06:04:06.315Z,18.98
2018-08-16T06:05:06.792Z,19.03
2018-08-16T06:06:07.267Z,19.05
2018-08-16T06:07:07.740Z,19.08
2018-08-16T06:08:08.214Z,19.07
2018-08-16T06:09:08.690Z,19.05
2018-08-16T06:10:09.163Z,19.02
2018-08-16T06:11:09.641Z,18.98
2018-08-16T06:12:10.113Z,18.94
2018-08-16T06:13:10.589Z,18.88
2018-08-16T06:14:11.065Z,18.81
2018-08-16T06:15:11.543Z,18.73
2018-08-16T06:16:12.016Z,18.67
2018-08-16T06:17:12.541Z,18.60
2018-08-16T06:18:12.965Z,18.53
2018-08-16T06:19:13.440Z,18.44
2018-08-16T06:20:13.913Z,18.36
2018-08-16T06:21:14.392Z,18.28
2018-08-16T06:22:14.864Z,18.19
2018-08-16T06:23:15.339Z,18.10
2018-08-16T06:24:15.812Z,18.02
2018-08-16T06:25:16.285Z,17.93
2018-08-16T06:26:16.759Z,17.84
2018-08-16T06:27:17.233Z,17.77
2018-08-16T06:28:17.705Z,17.70
2018-08-16T06:29:18.180Z,17.63
2018-08-16T06:30:18.658Z,17.57
2018-08-16T06:31:19.131Z,17.51
2018-08-16T06:32:19.601Z,17.44
2018-08-16T06:33:20.076Z,17.39
2018-08-16T06:34:20.548Z,17.34
2018-08-16T06:35:21.022Z,17.28
2018-08-16T06:36:21.493Z,17.22
2018-08-16T06:37:21.965Z,17.17
2018-08-16T06:38:22.438Z,17.11
2018-08-16T06:39:22.918Z,17.06
2018-08-16T06:40:23.386Z,17.02
2018-08-16T06:41:23.858Z,16.96
2018-08-16T06:42:24.329Z,16.92
2018-08-16T06:43:24.802Z,16.88
2018-08-16T06:44:25.273Z,16.84
2018-08-16T06:45:25.747Z,16.80
2018-08-16T06:46:26.287Z,16.77
2018-08-16T06:47:26.691Z,16.73
2018-08-16T06:48:27.163Z,16.71
2018-08-16T06:49:27.634Z,16.68
2018-08-16T06:50:28.107Z,16.66
2018-08-16T06:51:28.580Z,16.64
2018-08-16T06:52:29.059Z,16.62
2018-08-16T06:53:29.527Z,16.61
2018-08-16T06:54:29.991Z,16.60
2018-08-16T06:55:30.464Z,16.62
2018-08-16T06:56:30.935Z,16.65
2018-08-16T06:57:31.406Z,16.70
2018-08-16T06:58:31.881Z,16.80
2018-08-16T06:59:32.348Z,16.89
2018-08-16T07:00:32.820Z,17.00
2018-08-16T07:01:33.292Z,17.11
2018-08-16T07:02:33.764Z,17.22
2018-08-16T07:03:34.235Z,17.35
2018-08-16T07:04:34.711Z,17.51
2018-08-16T07:05:35.179Z,17.68
2018-08-16T07:06:35.651Z,17.85
2018-08-16T07:07:36.124Z,18.02
2018-08-16T07:08:36.596Z,18.19
2018-08-16T07:09:37.068Z,18.37
2018-08-16T07:10:37.542Z,18.55
2018-08-16T07:11:38.016Z,18.74
2018-08-16T07:12:38.491Z,18.94
2018-08-16T07:13:38.966Z,19.15
2018-08-16T07:14:39.438Z,19.37
2018-08-16T07:15:39.914Z,19.59
2018-08-16T07:16:40.388Z,19.81
2018-08-16T07:17:40.864Z,20.01
2018-08-16T07:18:41.380Z,20.23
2018-08-16T07:19:41.817Z,20.44
2018-08-16T07:20:42.295Z,20.64
2018-08-16T07:21:42.773Z,20.84
2018-08-16T07:22:43.249Z,21.01
2018-08-16T07:23:43.729Z,21.21
2018-08-16T07:24:44.217Z,21.38
2018-08-16T07:25:44.686Z,21.56
2018-08-16T07:26:45.168Z,21.77
2018-08-16T07:27:45.701Z,22.03
2018-08-16T07:28:46.129Z,22.33
2018-08-16T07:29:46.609Z,22.66
2018-08-16T07:30:47.090Z,23.02
2018-08-16T07:31:47.573Z,23.40
2018-08-16T07:32:48.056Z,23.79
2018-08-16T07:33:48.539Z,24.17
2018-08-16T07:34:49.022Z,24.54
2018-08-16T07:35:49.505Z,24.91
2018-08-16T07:36:49.990Z,25.26
2018-08-16T07:37:50.479Z,25.58
2018-08-16T07:38:50.960Z,25.90
2018-08-16T07:39:51.445Z,26.21
2018-08-16T07:40:51.947Z,26.47
2018-08-16T07:41:52.414Z,26.71
2018-08-16T07:42:52.900Z,26.95
2018-08-16T07:43:53.387Z,27.17
2018-08-16T07:44:53.873Z,27.38
2018-08-16T07:45:54.454Z,27.58
2018-08-16T07:46:54.848Z,27.76
2018-08-16T07:47:55.337Z,27.95
2018-08-16T07:48:55.821Z,28.11
2018-08-16T07:49:56.309Z,28.29
2018-08-16T07:50:56.805Z,28.45
2018-08-16T07:51:57.309Z,28.62
2018-08-16T07:52:57.772Z,28.77
2018-08-16T07:53:58.261Z,28.91
2018-08-16T07:54:58.749Z,29.06
2018-08-16T07:55:59.241Z,29.20
2018-08-16T07:56:59.740Z,29.32
2018-08-16T07:58:00.215Z,29.45
2018-08-16T07:59:00.705Z,29.59
2018-08-16T08:00:01.200Z,29.72
2018-08-16T08:01:01.684Z,29.85
2018-08-16T08:02:02.174Z,29.99
2018-08-16T08:03:02.666Z,30.12
2018-08-16T08:04:03.157Z,30.25
2018-08-16T08:05:03.644Z,30.36
2018-08-16T08:06:04.135Z,30.49
2018-08-16T08:07:04.633Z,30.61
2018-08-16T08:08:05.119Z,30.72
2018-08-16T08:09:05.675Z,30.83
2018-08-16T08:10:06.098Z,30.94
2018-08-16T08:11:06.590Z,31.05
2018-08-16T08:12:07.081Z,31.15
2018-08-16T08:13:07.572Z,31.26
2018-08-16T08:14:08.064Z,31.36
2018-08-16T08:15:08.557Z,31.40
2018-08-16T08:16:09.050Z,31.43
2018-08-16T08:17:09.541Z,31.46
2018-08-16T08:18:10.033Z,31.48
2018-08-16T08:19:10.527Z,31.49
2018-08-16T08:20:11.019Z,31.54
2018-08-16T08:21:11.512Z,31.59
2018-08-16T08:22:12.005Z,31.63
2018-08-16T08:23:12.499Z,31.68
2018-08-16T08:24:12.991Z,31.72
2018-08-16T08:25:13.517Z,31.77
2018-08-16T08:26:13.978Z,31.82
2018-08-16T08:27:14.472Z,31.85
2018-08-16T08:28:14.965Z,31.89
2018-08-16T08:29:15.456Z,31.95
2018-08-16T08:30:15.951Z,32.00
2018-08-16T08:31:16.447Z,32.04
2018-08-16T08:32:16.940Z,32.08
2018-08-16T08:33:17.432Z,32.10
2018-08-16T08:34:17.927Z,32.10
2018-08-16T08:35:18.422Z,32.08
2018-08-16T08:36:18.917Z,32.04
2018-08-16T08:37:19.411Z,32.02
2018-08-16T08:38:19.905Z,32.04
2018-08-16T08:39:20.401Z,32.05
2018-08-16T08:40:20.899Z,32.06
2018-08-16T08:41:21.388Z,32.05
2018-08-16T08:42:21.882Z,32.03
2018-08-16T08:43:22.378Z,32.00
2018-08-16T08:44:22.874Z,31.94
2018-08-16T08:45:23.367Z,31.89
2018-08-16T08:46:23.861Z,31.85
2018-08-16T08:47:24.357Z,31.82
2018-08-16T08:48:24.851Z,31.78
2018-08-16T08:49:25.350Z,31.77
2018-08-16T08:50:25.880Z,31.75
2018-08-16T08:51:26.334Z,31.75
2018-08-16T08:52:26.831Z,31.71
2018-08-16T08:53:27.322Z,31.67
2018-08-16T08:54:27.816Z,31.61
2018-08-16T08:55:28.308Z,31.56
2018-08-16T08:56:28.803Z,31.52
2018-08-16T08:57:29.295Z,31.46
2018-08-16T08:58:29.789Z,31.38
2018-08-16T08:59:30.313Z,31.31
2018-08-16T09:00:30.773Z,31.21
2018-08-16T09:01:31.262Z,31.05
2018-08-16T09:02:31.752Z,30.81
2018-08-16T09:03:32.243Z,30.48
2018-08-16T09:04:32.734Z,30.11
2018-08-16T09:05:33.221Z,29.72
2018-08-16T09:06:33.708Z,29.33
2018-08-16T09:07:34.197Z,28.95
2018-08-16T09:08:34.684Z,28.55
2018-08-16T09:09:35.172Z,28.17
2018-08-16T09:10:35.659Z,27.77
2018-08-16T09:11:36.143Z,27.40
2018-08-16T09:12:36.631Z,27.05
2018-08-16T09:13:37.122Z,26.73
2018-08-16T09:14:37.605Z,26.43
2018-08-16T09:15:38.089Z,26.13
2018-08-16T09:16:38.569Z,25.84
2018-08-16T09:17:39.055Z,25.55
2018-08-16T09:18:39.537Z,25.31
2018-08-16T09:19:40.019Z,25.07
2018-08-16T09:20:40.503Z,24.85
2018-08-16T09:21:40.983Z,24.63
2018-08-16T09:22:41.469Z,24.42
2018-08-16T09:23:41.949Z,24.21
2018-08-16T09:24:42.432Z,24.02
2018-08-16T09:25:42.917Z,23.84
2018-08-16T09:26:43.396Z,23.66
2018-08-16T09:27:43.876Z,23.50
2018-08-16T09:28:44.359Z,23.31
2018-08-16T09:29:44.840Z,23.12
2018-08-16T09:30:45.321Z,22.96
2018-08-16T09:31:45.799Z,22.83
2018-08-16T09:32:46.280Z,22.70
2018-08-16T09:33:46.759Z,22.59
2018-08-16T09:34:47.240Z,22.49
2018-08-16T09:35:47.720Z,22.40
2018-08-16T09:36:48.200Z,22.30
2018-08-16T09:37:48.677Z,22.20
2018-08-16T09:38:49.158Z,22.10
2018-08-16T09:39:49.718Z,22.01
2018-08-16T09:40:50.115Z,21.93
2018-08-16T09:41:50.596Z,21.85
2018-08-16T09:42:51.071Z,21.79
2018-08-16T09:43:51.552Z,21.70
2018-08-16T09:44:52.031Z,21.60
2018-08-16T09:45:52.507Z,21.51
2018-08-16T09:46:52.987Z,21.43
2018-08-16T09:47:53.465Z,21.36
2018-08-16T09:48:53.940Z,21.31
2018-08-16T09:49:54.421Z,21.29
2018-08-16T09:50:54.899Z,21.27
2018-08-16T09:51:55.373Z,21.24
2018-08-16T09:52:55.851Z,21.21
2018-08-16T09:53:56.327Z,21.17
2018-08-16T09:54:56.807Z,21.14
2018-08-16T09:55:57.282Z,21.10
2018-08-16T09:56:57.760Z,21.06
2018-08-16T09:57:58.234Z,21.02
2018-08-16T09:58:58.710Z,20.99
2018-08-16T09:59:59.190Z,20.96
2018-08-16T10:00:59.665Z,20.92
2018-08-16T10:02:00.173Z,20.87
2018-08-16T10:03:00.618Z,20.84
2018-08-16T10:04:01.095Z,20.81
2018-08-16T10:05:01.573Z,20.79
2018-08-16T10:06:02.043Z,20.79
2018-08-16T10:07:02.522Z,20.78
2018-08-16T10:08:02.997Z,20.79
2018-08-16T10:09:03.524Z,20.80
2018-08-16T10:10:03.948Z,20.83
2018-08-16T10:11:04.423Z,20.85
2018-08-16T10:12:04.900Z,20.87
2018-08-16T10:13:05.376Z,20.89
2018-08-16T10:14:05.851Z,20.92
2018-08-16T10:15:06.326Z,20.94
2018-08-16T10:16:06.808Z,20.95
2018-08-16T10:17:07.281Z,20.96
2018-08-16T10:18:07.750Z,20.98
2018-08-16T10:19:08.229Z,21.00
2018-08-16T10:20:08.702Z,21.02
2018-08-16T10:21:09.178Z,21.03
2018-08-16T10:22:09.652Z,21.04
2018-08-16T10:23:10.127Z,21.05
2018-08-16T10:24:10.602Z,21.05
2018-08-16T10:25:11.077Z,21.06
2018-08-16T10:26:11.551Z,21.07
2018-08-16T10:27:12.031Z,21.07
2018-08-16T10:28:12.501Z,21.08
2018-08-16T10:29:12.978Z,21.08
2018-08-16T10:30:13.453Z,21.10
2018-08-16T10:31:13.927Z,21.11
2018-08-16T10:32:14.403Z,21.12
2018-08-16T10:33:14.878Z,21.13
2018-08-16T10:34:15.351Z,21.14
2018-08-16T10:35:15.828Z,21.13
2018-08-16T10:36:16.315Z,21.14
2018-08-16T10:37:16.854Z,21.15
2018-08-16T10:38:17.251Z,21.16
2018-08-16T10:39:17.726Z,21.17
2018-08-16T10:40:18.205Z,21.18
2018-08-16T10:41:18.674Z,21.19
2018-08-16T10:42:19.148Z,21.19
2018-08-16T10:43:19.624Z,21.22
2018-08-16T10:44:20.105Z,21.31
2018-08-16T10:45:20.578Z,21.49
2018-08-16T10:46:21.048Z,21.71
2018-08-16T10:47:21.526Z,21.93
2018-08-16T10:48:21.996Z,22.04
2018-08-16T10:49:22.476Z,22.03
2018-08-16T10:50:22.946Z,21.97
2018-08-16T10:51:23.422Z,21.90
2018-08-16T10:52:23.897Z,21.83
2018-08-16T10:53:24.374Z,21.78
2018-08-16T10:54:24.848Z,21.75
2018-08-16T10:55:25.321Z,21.75
2018-08-16T10:56:25.797Z,21.77
2018-08-16T10:57:26.271Z,21.80
2018-08-16T10:58:26.745Z,21.82
2018-08-16T10:59:27.219Z,21.83
2018-08-16T11:00:27.695Z,21.83
2018-08-16T11:01:28.268Z,21.83
2018-08-16T11:02:28.645Z,21.84
2018-08-16T11:03:29.120Z,21.87
2018-08-16T11:04:29.795Z,21.90
2018-08-16T11:05:30.069Z,21.94
2018-08-16T11:06:30.542Z,21.98
2018-08-16T11:07:31.045Z,22.01
2018-08-16T11:08:31.495Z,22.04
2018-08-16T11:09:31.968Z,22.07
2018-08-16T11:10:32.443Z,22.09
2018-08-16T11:11:32.916Z,22.13
2018-08-16T11:12:33.395Z,22.15
2018-08-16T11:13:33.867Z,22.17
2018-08-16T11:14:34.341Z,22.19
2018-08-16T11:15:34.818Z,22.20
2018-08-16T11:16:35.291Z,22.20
2018-08-16T11:17:35.766Z,22.19
2018-08-16T11:18:36.239Z,22.18
2018-08-16T11:19:36.716Z,22.17
2018-08-16T11:20:37.190Z,22.17
2018-08-16T11:21:37.666Z,22.17
2018-08-16T11:22:38.139Z,22.18
2018-08-16T11:23:38.629Z,22.17
2018-08-16T11:24:39.090Z,22.18
2018-08-16T11:25:39.564Z,22.17
2018-08-16T11:26:40.039Z,22.15
2018-08-16T11:27:40.514Z,22.14
2018-08-16T11:28:40.989Z,22.12
2018-08-16T11:29:41.463Z,22.11
2018-08-16T11:30:41.937Z,22.11
2018-08-16T11:31:42.413Z,22.11
2018-08-16T11:32:42.887Z,22.11
2018-08-16T11:33:43.363Z,22.11
2018-08-16T11:34:43.840Z,22.11
2018-08-16T11:35:44.312Z,22.11
2018-08-16T11:36:44.792Z,22.13
2018-08-16T11:37:45.324Z,22.14
2018-08-16T11:38:45.737Z,22.15
2018-08-16T11:39:46.213Z,22.17
2018-08-16T11:41:47.164Z,22.20
2018-08-16T11:42:47.635Z,22.21
2018-08-16T11:43:48.109Z,22.23
2018-08-16T11:44:48.588Z,22.24
2018-08-16T11:45:49.061Z,22.25
2018-08-16T11:46:49.536Z,22.25
2018-08-16T11:47:50.011Z,22.27
2018-08-16T11:48:50.488Z,22.27
2018-08-16T11:49:50.960Z,22.28
2018-08-16T11:50:51.435Z,22.29
2018-08-16T11:51:51.911Z,22.30
2018-08-16T11:52:52.385Z,22.31
2018-08-16T11:53:52.860Z,22.32
2018-08-16T11:54:53.334Z,22.33
2018-08-16T11:55:53.811Z,22.34
2018-08-16T11:56:54.285Z,22.35
2018-08-16T11:57:54.760Z,22.36
2018-08-16T11:58:55.236Z,22.37
2018-08-16T11:59:55.709Z,22.36
2018-08-16T12:00:56.187Z,22.38
2018-08-16T12:01:56.728Z,22.40
2018-08-16T12:02:57.138Z,22.42
2018-08-16T12:03:57.610Z,22.44
2018-08-16T12:04:58.087Z,22.46
2018-08-16T12:05:58.566Z,22.48
2018-08-16T12:06:59.037Z,22.51
2018-08-16T12:07:59.512Z,22.53
2018-08-16T12:08:59.988Z,22.54
2018-08-16T12:10:00.464Z,22.56
2018-08-16T12:11:00.937Z,22.57
2018-08-16T12:12:01.414Z,22.60
2018-08-16T12:13:01.888Z,22.62
2018-08-16T12:14:02.364Z,22.65
2018-08-16T12:15:02.898Z,22.66
2018-08-16T12:16:03.314Z,22.68
2018-08-16T12:17:03.789Z,22.70
2018-08-16T12:18:04.265Z,22.72
2018-08-16T12:19:04.739Z,22.74
2018-08-16T12:20:05.215Z,22.75
2018-08-16T12:21:05.753Z,22.77
2018-08-16T12:22:06.172Z,22.78
2018-08-16T12:23:06.643Z,22.79
2018-08-16T12:24:07.121Z,22.80
2018-08-16T12:25:07.593Z,22.82
2018-08-16T12:26:08.069Z,22.84
2018-08-16T12:27:08.547Z,22.86
2018-08-16T12:28:09.021Z,22.88
2018-08-16T12:29:09.570Z,22.89
2018-08-16T12:30:09.973Z,22.91
2018-08-16T12:31:10.447Z,22.92
2018-08-16T12:32:10.923Z,22.94
2018-08-16T12:33:11.399Z,22.97
2018-08-16T12:34:11.874Z,22.99
2018-08-16T12:35:12.349Z,23.01
2018-08-16T12:36:12.825Z,23.03
2018-08-16T12:37:13.303Z,23.05
2018-08-16T12:38:13.784Z,23.07
2018-08-16T12:39:14.256Z,23.09
2018-08-16T12:40:14.730Z,23.11
2018-08-16T12:41:15.264Z,23.14
2018-08-16T12:42:15.755Z,23.17
2018-08-16T12:43:16.156Z,23.19
2018-08-16T12:44:16.637Z,23.22
2018-08-16T12:45:17.109Z,23.25
2018-08-16T12:46:17.601Z,23.27
2018-08-16T12:47:18.128Z,23.28
2018-08-16T12:48:18.536Z,23.30
2018-08-16T12:49:19.018Z,23.32
2018-08-16T12:50:19.490Z,23.34
2018-08-16T12:51:19.965Z,23.36
2018-08-16T12:52:20.442Z,23.38
2018-08-16T12:53:20.920Z,23.40
2018-08-16T12:54:21.395Z,23.43
2018-08-16T12:55:21.871Z,23.45
2018-08-16T12:56:22.349Z,23.47
2018-08-16T12:57:22.823Z,23.49
2018-08-16T12:58:23.301Z,23.51
2018-08-16T12:59:23.777Z,23.52